createdAt,value
2018-07-03T00:00:34.886Z,13.23
2018-07-03T00:03:03.575Z,14.03
2018-07-03T00:05:32.343Z,13.83
2018-07-03T00:08:00.982Z,13.47
2018-07-03T00:10:29.690Z,15.53
2018-07-03T00:12:58.383Z,16.23
2018-07-03T00:15:27.039Z,20.13
2018-07-03T00:17:56.059Z,26.90
2018-07-03T00:20:24.739Z,31.57
2018-07-03T00:22:53.539Z,24.13
2018-07-03T00:25:22.511Z,22.87
2018-07-03T00:27:51.780Z,17.17
2018-07-03T00:30:20.430Z,16.30
2018-07-03T00:32:49.090Z,16.40
2018-07-03T00:35:17.729Z,18.00
2018-07-03T00:37:46.715Z,14.00
2018-07-03T00:40:15.367Z,15.10
2018-07-03T00:42:43.962Z,15.40
2018-07-03T00:45:12.584Z,13.67
2018-07-03T00:47:41.219Z,12.70
2018-07-03T00:50:09.883Z,12.43
2018-07-03T00:52:38.527Z,13.27
2018-07-03T00:55:07.211Z,13.90
2018-07-03T00:57:35.920Z,11.23
2018-07-03T01:00:15.472Z,11.63
2018-07-03T01:02:44.335Z,11.60
2018-07-03T01:05:13.201Z,10.93
2018-07-03T01:07:41.830Z,10.67
2018-07-03T01:10:10.450Z,11.23
2018-07-03T01:12:39.184Z,10.77
2018-07-03T01:15:07.859Z,10.90
2018-07-03T01:17:36.589Z,11.90
2018-07-03T01:20:05.832Z,11.00
2018-07-03T01:22:34.528Z,11.50
2018-07-03T01:25:03.475Z,10.80
2018-07-03T01:27:32.100Z,11.07
2018-07-03T01:30:01.100Z,11.93
2018-07-03T01:32:29.799Z,12.30
2018-07-03T01:34:58.513Z,12.23
2018-07-03T01:37:27.444Z,11.03
2018-07-03T01:39:56.199Z,12.03
2018-07-03T01:42:24.815Z,11.27
2018-07-03T01:44:53.499Z,11.53
2018-07-03T01:47:22.195Z,12.37
2018-07-03T01:49:51.214Z,12.13
2018-07-03T01:52:19.831Z,13.50
2018-07-03T01:54:48.427Z,13.73
2018-07-03T01:57:17.099Z,12.80
2018-07-03T01:59:46.255Z,11.83
2018-07-03T02:02:14.968Z,11.60
2018-07-03T02:04:43.600Z,15.03
2018-07-03T02:07:12.313Z,13.90
2018-07-03T02:09:41.266Z,12.93
2018-07-03T02:12:09.924Z,13.10
2018-07-03T02:14:38.556Z,12.30
2018-07-03T02:17:07.625Z,13.57
2018-07-03T02:19:36.535Z,12.97
2018-07-03T02:22:05.194Z,13.53
2018-07-03T02:24:33.936Z,13.57
2018-07-03T02:27:02.607Z,13.07
2018-07-03T02:29:31.237Z,12.87
2018-07-03T02:32:00.146Z,16.23
2018-07-03T02:34:29.000Z,13.80
2018-07-03T02:36:57.879Z,14.40
2018-07-03T02:39:26.872Z,14.83
2018-07-03T02:41:55.529Z,16.20
2018-07-03T02:44:24.260Z,14.67
2018-07-03T02:46:53.005Z,15.50
2018-07-03T02:49:21.711Z,15.43
2018-07-03T02:51:50.359Z,21.33
2018-07-03T02:54:19.046Z,18.13
2018-07-03T02:56:47.735Z,17.77
2018-07-03T02:59:16.411Z,17.43
2018-07-03T03:01:45.104Z,19.77
2018-07-03T03:04:14.018Z,18.20
2018-07-03T03:06:42.784Z,17.83
2018-07-03T03:09:12.766Z,18.40
2018-07-03T03:11:41.736Z,20.77
2018-07-03T03:14:10.383Z,22.00
2018-07-03T03:16:39.093Z,23.73
2018-07-03T03:19:07.782Z,24.00
2018-07-03T03:21:36.414Z,23.70
2018-07-03T03:24:05.352Z,26.30
2018-07-03T03:26:34.263Z,27.40
2018-07-03T03:29:02.875Z,23.57
2018-07-03T03:31:31.824Z,23.67
2018-07-03T03:34:00.463Z,24.20
2018-07-03T03:36:29.171Z,23.03
2018-07-03T03:38:57.866Z,23.80
2018-07-03T03:41:26.777Z,21.53
2018-07-03T03:43:55.427Z,18.83
2018-07-03T03:46:24.118Z,19.70
2018-07-03T03:48:52.952Z,20.70
2018-07-03T03:51:21.817Z,18.20
2018-07-03T03:53:50.477Z,18.57
2018-07-03T03:56:19.147Z,25.43
2018-07-03T03:58:47.816Z,19.67
2018-07-03T04:01:16.521Z,18.10
2018-07-03T04:03:45.207Z,17.90
2018-07-03T04:06:13.863Z,19.17
2018-07-03T04:08:42.577Z,18.37
2018-07-03T04:11:11.811Z,17.73
2018-07-03T04:13:40.699Z,18.70
2018-07-03T04:16:09.619Z,23.43
2018-07-03T04:18:38.277Z,22.23
2018-07-03T04:21:08.046Z,19.23
2018-07-03T04:23:37.573Z,19.27
2018-07-03T04:26:06.260Z,19.87
2018-07-03T04:28:35.586Z,18.53
2018-07-03T04:31:04.647Z,21.50
2018-07-03T04:33:33.807Z,20.90
2018-07-03T04:36:03.594Z,21.83
2018-07-03T04:38:32.567Z,21.70
2018-07-03T04:41:01.577Z,20.00
2018-07-03T04:43:30.615Z,23.23
2018-07-03T04:45:59.653Z,21.27
2018-07-03T04:48:28.322Z,22.07
2018-07-03T04:50:57.014Z,27.13
2018-07-03T04:53:26.533Z,26.33
2018-07-03T04:55:55.396Z,27.63
2018-07-03T04:58:24.079Z,25.90
2018-07-03T05:00:53.135Z,26.80
2018-07-03T05:03:21.802Z,28.70
2018-07-03T05:05:50.592Z,23.07
2018-07-03T05:08:19.322Z,26.10
2018-07-03T05:10:48.018Z,26.67
2018-07-03T05:13:16.767Z,24.57
2018-07-03T05:15:45.563Z,22.20
2018-07-03T05:18:14.327Z,25.10
2018-07-03T05:20:43.186Z,22.97
2018-07-03T05:23:12.054Z,21.17
2018-07-03T05:25:40.864Z,20.77
2018-07-03T05:28:09.754Z,22.63
2018-07-03T05:30:38.685Z,20.33
2018-07-03T05:33:07.730Z,22.73
2018-07-03T05:35:36.616Z,20.47
2018-07-03T05:38:05.414Z,20.37
2018-07-03T05:40:34.503Z,20.67
2018-07-03T05:43:03.543Z,22.70
2018-07-03T05:45:32.418Z,22.13
2018-07-03T05:48:01.235Z,30.40
2018-07-03T05:50:30.131Z,20.00
2018-07-03T05:52:58.832Z,29.20
2018-07-03T05:55:28.048Z,25.15
2018-07-03T05:57:57.347Z,19.90
2018-07-03T06:00:26.084Z,21.27
2018-07-03T06:02:55.029Z,18.40
2018-07-03T06:05:23.835Z,18.50
2018-07-03T06:07:52.866Z,18.60
2018-07-03T06:10:21.828Z,18.37
2018-07-03T06:12:50.737Z,17.25
2018-07-03T06:15:19.394Z,18.62
2018-07-03T06:17:48.130Z,17.87
2018-07-03T06:20:16.995Z,17.23
2018-07-03T06:22:45.782Z,17.02
2018-07-03T06:25:14.641Z,16.93
2018-07-03T06:27:43.596Z,18.42
2018-07-03T06:30:12.383Z,17.48
2018-07-03T06:32:41.219Z,17.20
2018-07-03T06:35:10.020Z,17.32
2018-07-03T06:37:39.535Z,17.85
2018-07-03T06:40:08.061Z,17.60
2018-07-03T06:42:36.957Z,15.15
2018-07-03T06:45:06.192Z,13.45
2018-07-03T06:47:35.300Z,16.10
2018-07-03T06:50:04.476Z,15.08
2018-07-03T06:52:33.262Z,16.25
2018-07-03T06:55:02.611Z,17.57
2018-07-03T06:57:31.374Z,17.07
2018-07-03T07:00:00.408Z,15.80
2018-07-03T07:02:32.497Z,15.95
2018-07-03T07:05:19.396Z,16.23
2018-07-03T07:08:04.291Z,16.15
2018-07-03T07:10:49.010Z,17.57
2018-07-03T07:13:20.875Z,15.95
2018-07-03T07:15:49.585Z,15.32
2018-07-03T07:18:18.280Z,15.25
2018-07-03T07:20:47.573Z,15.83
2018-07-03T07:23:17.416Z,16.48
2018-07-03T07:25:46.351Z,15.70
2018-07-03T07:28:15.104Z,15.40
2018-07-03T07:30:43.965Z,17.32
2018-07-03T07:33:12.719Z,16.60
2018-07-03T07:35:42.366Z,15.68
2018-07-03T07:38:12.155Z,16.35
2018-07-03T07:40:41.105Z,15.25
2018-07-03T07:43:09.838Z,16.40
2018-07-03T07:45:38.856Z,18.20
2018-07-03T07:48:08.093Z,18.77
2018-07-03T07:50:36.854Z,16.80
2018-07-03T07:53:05.520Z,17.48
2018-07-03T07:55:34.695Z,15.20
2018-07-03T07:58:04.427Z,15.60
2018-07-03T08:00:34.512Z,16.00
2018-07-03T08:03:03.543Z,16.32
2018-07-03T08:05:33.409Z,16.15
2018-07-03T08:08:02.547Z,17.37
2018-07-03T08:10:31.392Z,16.60
2018-07-03T08:13:01.204Z,16.30
2018-07-03T08:15:30.278Z,18.17
2018-07-03T08:17:59.291Z,16.40
2018-07-03T08:20:28.071Z,16.32
2018-07-03T08:22:56.988Z,17.55
2018-07-03T08:25:26.870Z,16.75
2018-07-03T08:27:56.706Z,21.23
2018-07-03T08:30:26.003Z,16.25
2018-07-03T08:32:55.807Z,14.87
2018-07-03T08:35:27.431Z,16.02
2018-07-03T08:37:56.530Z,16.70
2018-07-03T08:40:26.258Z,16.52
2018-07-03T08:42:55.625Z,16.40
2018-07-03T08:45:25.143Z,18.10
2018-07-03T08:47:54.262Z,18.75
2018-07-03T08:50:24.328Z,15.95
2018-07-03T08:52:53.637Z,16.70
2018-07-03T08:55:22.542Z,16.23
2018-07-03T08:57:51.245Z,14.98
2018-07-03T09:00:20.866Z,17.55
2018-07-03T09:02:50.236Z,16.30
2018-07-03T09:05:19.167Z,18.90
2018-07-03T09:07:48.374Z,16.93
2018-07-03T09:10:17.266Z,17.37
2018-07-03T09:12:46.260Z,17.45
2018-07-03T09:15:15.216Z,15.93
2018-07-03T09:17:45.048Z,15.63
2018-07-03T09:20:13.794Z,16.32
2018-07-03T09:22:42.926Z,15.90
2018-07-03T09:25:11.973Z,16.52
2018-07-03T09:27:40.736Z,16.52
2018-07-03T09:30:10.608Z,15.32
2018-07-03T09:32:39.485Z,16.37
2018-07-03T09:35:08.632Z,16.35
2018-07-03T09:37:38.511Z,15.30
2018-07-03T09:40:07.543Z,16.82
2018-07-03T09:42:36.267Z,19.32
2018-07-03T09:45:06.310Z,16.67
2018-07-03T09:47:35.464Z,15.20
2018-07-03T09:50:04.400Z,15.50
2018-07-03T09:52:33.367Z,15.80
2018-07-03T09:55:02.333Z,15.00
2018-07-03T09:57:32.185Z,14.20
2018-07-03T10:00:01.612Z,12.50
2018-07-03T10:02:30.303Z,12.88
2018-07-03T10:04:59.032Z,13.90
2018-07-03T10:07:28.014Z,14.03
2018-07-03T10:09:57.240Z,16.25
2018-07-03T10:12:26.521Z,14.07
2018-07-03T10:14:55.246Z,13.80
2018-07-03T10:17:25.384Z,13.43
2018-07-03T10:19:55.697Z,13.38
2018-07-03T10:22:24.754Z,12.95
2018-07-03T10:24:53.619Z,13.85
2018-07-03T10:27:22.719Z,13.22
2018-07-03T10:29:51.675Z,13.40
2018-07-03T10:32:20.971Z,14.33
2018-07-03T10:34:49.928Z,15.32
2018-07-03T10:37:18.883Z,12.20
2018-07-03T10:39:47.902Z,12.15
2018-07-03T10:42:17.110Z,12.60
2018-07-03T10:44:45.968Z,13.60
2018-07-03T10:47:15.746Z,13.68
2018-07-03T10:49:44.540Z,24.63
2018-07-03T10:52:13.480Z,12.53
2018-07-03T10:54:43.484Z,13.25
2018-07-03T10:57:12.180Z,12.20
2018-07-03T10:59:40.908Z,12.20
2018-07-03T11:02:10.115Z,12.70
2018-07-03T11:04:38.898Z,13.40
2018-07-03T11:07:07.679Z,14.25
2018-07-03T11:09:37.239Z,13.90
2018-07-03T11:12:06.946Z,13.60
2018-07-03T11:14:35.985Z,14.30
2018-07-03T11:17:04.984Z,12.78
2018-07-03T11:19:34.115Z,12.93
2018-07-03T11:22:03.052Z,12.47
2018-07-03T11:24:31.735Z,13.40
2018-07-03T11:27:00.436Z,13.13
2018-07-03T11:29:29.320Z,13.93
2018-07-03T11:31:58.199Z,14.20
2018-07-03T11:34:26.991Z,12.98
2018-07-03T11:36:56.167Z,13.75
2018-07-03T11:39:25.383Z,12.60
2018-07-03T11:41:54.191Z,13.30
2018-07-03T11:44:23.758Z,14.83
2018-07-03T11:46:52.577Z,14.90
2018-07-03T11:49:22.353Z,14.10
2018-07-03T11:51:51.115Z,17.42
2018-07-03T11:54:19.840Z,15.43
2018-07-03T11:56:49.133Z,14.05
2018-07-03T11:59:17.894Z,13.48
2018-07-03T12:01:47.080Z,13.83
2018-07-03T12:04:16.341Z,13.93
2018-07-03T12:06:45.261Z,13.85
2018-07-03T12:09:14.256Z,15.28
2018-07-03T12:11:43.406Z,12.75
2018-07-03T12:14:12.419Z,14.78
2018-07-03T12:16:41.157Z,12.60
2018-07-03T12:19:10.038Z,13.95
2018-07-03T12:21:39.045Z,12.93
2018-07-03T12:24:07.773Z,12.68
2018-07-03T12:26:36.839Z,13.22
2018-07-03T12:29:06.136Z,13.25
2018-07-03T12:31:34.791Z,13.08
2018-07-03T12:34:03.399Z,12.58
2018-07-03T12:36:32.636Z,16.42
2018-07-03T12:39:02.036Z,13.13
2018-07-03T12:41:31.012Z,13.53
2018-07-03T12:43:59.769Z,12.07
2018-07-03T12:46:29.046Z,12.78
2018-07-03T12:48:57.723Z,14.05
2018-07-03T12:51:26.662Z,13.85
2018-07-03T12:53:55.507Z,13.38
2018-07-03T12:56:24.976Z,13.00
2018-07-03T12:58:54.548Z,13.18
2018-07-03T13:01:23.280Z,17.40
2018-07-03T13:03:52.318Z,16.07
2018-07-03T13:06:21.047Z,14.65
2018-07-03T13:08:50.211Z,16.70
2018-07-03T13:11:19.080Z,12.90
2018-07-03T13:13:48.327Z,13.70
2018-07-03T13:16:17.064Z,13.70
2018-07-03T13:18:45.767Z,12.58
2018-07-03T13:21:15.421Z,12.33
2018-07-03T13:23:44.141Z,12.55
2018-07-03T13:26:12.875Z,13.08
2018-07-03T13:28:41.788Z,14.90
2018-07-03T13:31:10.534Z,12.78
2018-07-03T13:33:39.452Z,13.98
2018-07-03T13:36:08.490Z,13.30
2018-07-03T13:38:37.394Z,13.45
2018-07-03T13:41:06.508Z,16.67
2018-07-03T13:43:35.585Z,14.00
2018-07-03T13:46:04.363Z,13.05
2018-07-03T13:48:33.485Z,12.98
2018-07-03T13:51:02.221Z,15.63
2018-07-03T13:53:32.040Z,17.48
2018-07-03T13:56:00.775Z,14.98
2018-07-03T13:58:29.767Z,13.40
2018-07-03T14:00:58.551Z,15.68
2018-07-03T14:03:27.261Z,13.05
2018-07-03T14:05:56.095Z,11.63
2018-07-03T14:08:25.240Z,16.35
2018-07-03T14:10:54.116Z,14.05
2018-07-03T14:13:22.772Z,12.60
2018-07-03T14:15:51.693Z,13.58
2018-07-03T14:18:25.006Z,14.98
2018-07-03T14:20:54.910Z,11.03
2018-07-03T14:23:23.568Z,14.80
2018-07-03T14:25:52.671Z,12.28
2018-07-03T14:28:21.471Z,13.55
2018-07-03T14:30:50.242Z,11.20
2018-07-03T14:33:19.288Z,11.35
2018-07-03T14:35:48.104Z,12.43
2018-07-03T14:38:16.751Z,12.58
2018-07-03T14:40:45.510Z,15.35
2018-07-03T14:43:14.220Z,14.20
2018-07-03T14:45:44.162Z,12.80
2018-07-03T14:48:13.452Z,11.63
2018-07-03T14:50:42.150Z,12.28
2018-07-03T14:53:12.679Z,13.25
2018-07-03T14:55:41.516Z,11.80
2018-07-03T14:58:10.170Z,12.88
2018-07-03T15:00:39.044Z,14.00
2018-07-03T15:03:07.724Z,11.50
2018-07-03T15:05:36.453Z,11.18
2018-07-03T15:08:05.472Z,12.18
2018-07-03T15:10:34.114Z,10.32
2018-07-03T15:13:04.242Z,13.83
2018-07-03T15:15:32.912Z,13.30
2018-07-03T15:18:01.668Z,12.55
2018-07-03T15:20:30.704Z,13.22
2018-07-03T15:22:59.847Z,13.28
2018-07-03T15:25:35.252Z,12.30
2018-07-03T15:30:54.070Z,13.53
2018-07-03T15:33:22.723Z,20.08
2018-07-03T15:35:51.532Z,16.20
2018-07-03T15:38:20.150Z,14.00
2018-07-03T15:40:48.972Z,11.43
2018-07-03T15:43:18.618Z,15.58
2018-07-03T15:45:47.273Z,11.70
2018-07-03T15:48:43.075Z,15.03
2018-07-03T15:51:11.930Z,13.45
2018-07-03T15:53:43.971Z,12.40
2018-07-03T15:56:12.846Z,11.53
2018-07-03T15:58:41.473Z,11.50
2018-07-03T16:01:10.134Z,12.80
2018-07-03T16:04:15.037Z,12.75
2018-07-03T16:07:21.941Z,11.85
2018-07-03T16:09:50.745Z,12.75
2018-07-03T16:12:30.154Z,14.58
2018-07-03T16:14:58.936Z,12.00
2018-07-03T16:17:27.824Z,11.75
2018-07-03T16:20:01.604Z,14.40
2018-07-03T16:22:30.720Z,12.13
2018-07-03T16:24:59.779Z,11.55
2018-07-03T16:27:28.574Z,18.85
2018-07-03T16:29:57.752Z,12.37
2018-07-03T16:32:26.446Z,14.13
2018-07-03T16:34:55.203Z,11.38
2018-07-03T16:37:24.080Z,17.35
2018-07-03T16:39:52.871Z,14.10
2018-07-03T16:42:21.570Z,13.18
2018-07-03T16:44:50.205Z,13.13
2018-07-03T16:47:23.144Z,20.88
2018-07-03T16:49:53.374Z,12.90
2018-07-03T16:52:22.152Z,14.07
2018-07-03T16:54:50.835Z,12.60
2018-07-03T16:57:19.516Z,16.15
2018-07-03T16:59:53.577Z,13.13
2018-07-03T17:02:34.224Z,14.53
2018-07-03T17:05:03.787Z,12.58
2018-07-03T17:07:32.495Z,14.25
2018-07-03T17:10:03.895Z,15.10
2018-07-03T17:12:32.878Z,13.38
2018-07-03T17:15:01.841Z,13.13
2018-07-03T17:17:31.103Z,13.37
2018-07-03T17:19:59.783Z,13.17
2018-07-03T17:22:28.453Z,14.17
2018-07-03T17:24:57.139Z,15.43
2018-07-03T17:27:25.832Z,14.43
2018-07-03T17:29:54.521Z,13.93
2018-07-03T17:32:23.238Z,15.40
2018-07-03T17:34:51.954Z,16.13
2018-07-03T17:37:21.102Z,14.03
2018-07-03T17:40:01.052Z,16.10
2018-07-03T17:42:40.839Z,13.00
2018-07-03T17:45:51.084Z,14.07
2018-07-03T17:48:38.853Z,14.77
2018-07-03T17:51:07.599Z,19.00
2018-07-03T17:53:36.697Z,17.93
2018-07-03T17:56:05.611Z,15.07
2018-07-03T17:58:45.200Z,14.10
2018-07-03T18:01:14.020Z,14.53
2018-07-03T18:03:42.675Z,15.47
2018-07-03T18:06:11.750Z,17.07
2018-07-03T18:08:40.433Z,18.60
2018-07-03T18:11:09.965Z,22.17
2018-07-03T18:13:38.619Z,19.00
2018-07-03T18:16:08.512Z,23.07
2018-07-03T18:18:37.194Z,39.20
2018-07-03T18:21:06.063Z,20.57
2018-07-03T18:23:34.776Z,24.93
2018-07-03T18:26:03.607Z,19.60
2018-07-03T18:28:33.129Z,35.70
2018-07-03T18:31:01.978Z,18.10
2018-07-03T18:33:31.103Z,16.43
2018-07-03T18:35:59.836Z,19.53
2018-07-03T18:38:29.109Z,17.77
2018-07-03T18:40:57.730Z,19.67
2018-07-03T18:43:27.028Z,16.40
2018-07-03T18:45:55.760Z,14.53
2018-07-03T18:48:24.492Z,16.70
2018-07-03T18:50:53.251Z,15.67
2018-07-03T18:53:21.991Z,16.63
2018-07-03T18:55:54.674Z,14.80
2018-07-03T18:58:23.333Z,16.83
2018-07-03T19:00:52.176Z,16.80
2018-07-03T19:03:21.242Z,17.27
2018-07-03T19:05:49.926Z,15.90
2018-07-03T19:08:18.690Z,14.37
2018-07-03T19:10:47.537Z,15.47
2018-07-03T19:13:16.782Z,15.87
2018-07-03T19:15:45.745Z,16.27
2018-07-03T19:18:14.639Z,16.47
2018-07-03T19:20:43.591Z,16.07
2018-07-03T19:23:12.258Z,17.53
2018-07-03T19:25:41.128Z,16.83
2018-07-03T19:28:09.947Z,16.60
2018-07-03T19:30:39.786Z,17.17
2018-07-03T19:33:08.569Z,17.20
2018-07-03T19:35:37.209Z,17.93
2018-07-03T19:38:06.218Z,18.80
2018-07-03T19:40:34.901Z,19.03
2018-07-03T19:43:24.284Z,17.90
2018-07-03T19:45:53.871Z,18.67
2018-07-03T19:48:23.054Z,20.67
2018-07-03T19:50:53.135Z,19.70
2018-07-03T19:53:21.877Z,18.23
2018-07-03T19:55:51.794Z,24.87
2018-07-03T19:58:21.006Z,19.40
2018-07-03T20:00:50.950Z,19.17
2018-07-03T20:03:19.673Z,18.10
2018-07-03T20:05:48.402Z,17.60
2018-07-03T20:08:17.215Z,18.67
2018-07-03T20:10:45.978Z,18.07
2018-07-03T20:13:16.204Z,28.70
2018-07-03T20:15:44.894Z,23.63
2018-07-03T20:18:14.098Z,21.73
2018-07-03T20:20:42.965Z,24.40
2018-07-03T20:23:11.622Z,23.33
2018-07-03T20:25:40.604Z,18.73
2018-07-03T20:28:09.547Z,20.10
2018-07-03T20:30:38.302Z,18.70
2018-07-03T20:33:06.914Z,18.83
2018-07-03T20:35:35.612Z,18.70
2018-07-03T20:38:06.592Z,17.57
2018-07-03T20:41:08.124Z,16.43
2018-07-03T20:43:40.005Z,16.80
2018-07-03T20:46:10.140Z,16.63
2018-07-03T20:48:38.926Z,17.50
2018-07-03T20:51:07.769Z,16.40
2018-07-03T20:53:39.282Z,17.80
2018-07-03T20:56:08.288Z,16.37
2018-07-03T20:58:36.954Z,17.77
2018-07-03T21:01:20.073Z,16.83
2018-07-03T21:04:00.640Z,18.53
2018-07-03T21:06:29.244Z,17.03
2018-07-03T21:08:57.985Z,17.50
2018-07-03T21:11:27.272Z,17.63
2018-07-03T21:13:56.731Z,17.43
2018-07-03T21:16:25.395Z,17.17
2018-07-03T21:18:54.381Z,17.67
2018-07-03T21:21:23.043Z,17.47
2018-07-03T21:23:51.674Z,17.63
2018-07-03T21:26:20.326Z,18.47
2018-07-03T21:28:48.950Z,20.60
2018-07-03T21:31:17.687Z,18.70
2018-07-03T21:33:46.263Z,18.43
2018-07-03T21:36:14.984Z,21.17
2018-07-03T21:38:43.595Z,19.70
2018-07-03T21:41:12.276Z,19.23
2018-07-03T21:43:41.168Z,19.27
2018-07-03T21:46:09.887Z,19.90
2018-07-03T21:48:38.574Z,19.43
2018-07-03T21:51:07.531Z,19.30
2018-07-03T21:53:36.238Z,19.67
2018-07-03T21:56:04.958Z,19.60
2018-07-03T21:58:33.763Z,21.23
2018-07-03T22:01:02.731Z,20.30
2018-07-03T22:03:31.367Z,19.53
2018-07-03T22:06:00.022Z,21.70
2018-07-03T22:08:28.661Z,19.60
2018-07-03T22:10:57.311Z,20.13
2018-07-03T22:13:25.966Z,20.60
2018-07-03T22:15:54.580Z,18.30
2018-07-03T22:18:23.267Z,20.00
2018-07-03T22:20:52.014Z,19.50
2018-07-03T22:23:20.694Z,20.17
2018-07-03T22:25:49.442Z,19.00
2018-07-03T22:28:18.133Z,19.93
2018-07-03T22:30:46.832Z,21.00
2018-07-03T22:33:15.531Z,19.83
2018-07-03T22:35:44.246Z,20.17
2018-07-03T22:38:12.999Z,19.93
2018-07-03T22:40:41.595Z,19.67
2018-07-03T22:43:10.258Z,19.70
2018-07-03T22:45:38.918Z,19.83
2018-07-03T22:48:07.618Z,18.07
2018-07-03T22:50:36.294Z,20.43
2018-07-03T22:53:05.281Z,18.90
2018-07-03T22:55:34.065Z,18.70
2018-07-03T22:58:02.708Z,18.30
2018-07-03T23:00:31.417Z,18.53
2018-07-03T23:03:00.393Z,17.53
2018-07-03T23:05:29.321Z,17.43
2018-07-03T23:07:57.984Z,17.37
2018-07-03T23:10:26.855Z,17.57
2018-07-03T23:12:55.491Z,17.93
2018-07-03T23:15:24.735Z,16.40
2018-07-03T23:17:53.372Z,17.60
2018-07-03T23:20:22.021Z,17.67
2018-07-03T23:22:50.934Z,19.67
2018-07-03T23:25:19.574Z,18.10
2018-07-03T23:27:48.181Z,17.63
2018-07-03T23:30:16.842Z,17.93
2018-07-03T23:32:45.736Z,18.80
2018-07-03T23:35:16.283Z,18.47
2018-07-03T23:37:44.955Z,18.87
2018-07-03T23:40:13.934Z,18.70
2018-07-03T23:42:42.613Z,18.80
2018-07-03T23:45:11.393Z,18.37
2018-07-03T23:47:51.172Z,18.77
2018-07-03T23:50:30.785Z,18.90
2018-07-03T23:53:10.519Z,20.23
2018-07-03T23:55:50.362Z,20.10
2018-07-03T23:58:30.396Z,22.10
